Time;durP1;ratioP1;P1;durP2;ratioP2;P2;SDS_P1;SDS_P2;PMS_P1;PMS_P2;Temp;Humidity;BMP_temperature;BMP_pressure;BME280_temperature;BME280_humidity;BME280_pressure;Samples;Min_cycle;Max_cycle;Signal;HPM_P1;HPM_P2
2022/07/28 00:01:10;;;;;;;4.23;1.20;;;20.60;56.20;;;;;;5026552;28;20466;-78
2022/07/28 00:03:39;;;;;;;3.30;1.00;;;20.60;56.30;;;;;;5026670;28;20452;-78
2022/07/28 00:06:08;;;;;;;3.93;1.20;;;20.60;56.30;;;;;;5023684;28;20834;-78
2022/07/28 00:08:36;;;;;;;5.20;1.20;;;20.60;56.30;;;;;;5024947;28;21020;-78
2022/07/28 00:11:04;;;;;;;3.93;1.00;;;20.50;56.30;;;;;;5028118;28;20496;-78
2022/07/28 00:13:32;;;;;;;5.33;1.30;;;20.50;56.30;;;;;;5026421;28;20475;-78
2022/07/28 00:16:00;;;;;;;5.73;1.40;;;20.40;56.30;;;;;;5027435;28;20468;-78
2022/07/28 00:18:28;;;;;;;5.40;1.00;;;20.30;56.40;;;;;;5028295;28;20510;-78
2022/07/28 00:20:57;;;;;;;6.07;1.20;;;20.30;56.50;;;;;;5029370;28;20511;-77
2022/07/28 00:23:25;;;;;;;3.70;1.00;;;20.20;56.50;;;;;;5028054;28;20457;-78
2022/07/28 00:26:07;;;;;;;5.17;1.30;;;20.20;56.60;;;;;;5027711;28;20483;-78
2022/07/28 00:28:35;;;;;;;4.50;1.60;;;20.10;56.70;;;;;;5027886;28;20815;-78
2022/07/28 00:31:03;;;;;;;7.27;1.20;;;20.10;56.70;;;;;;5012006;28;20471;-78
2022/07/28 00:33:33;;;;;;;4.07;1.13;;;20.00;56.80;;;;;;5028292;28;20489;-78
2022/07/28 00:36:03;;;;;;;5.60;1.27;;;20.00;56.80;;;;;;5023726;28;20468;-78
2022/07/28 00:38:33;;;;;;;7.50;1.67;;;20.00;56.90;;;;;;5025265;28;20488;-78
2022/07/28 00:41:11;;;;;;;5.60;1.53;;;19.90;57.00;;;;;;5024950;28;20477;-78
2022/07/28 00:43:39;;;;;;;4.40;1.33;;;19.90;57.10;;;;;;5016665;28;20466;-78
2022/07/28 00:46:08;;;;;;;3.40;0.97;;;19.80;57.20;;;;;;5023458;28;20482;-78
2022/07/28 00:48:37;;;;;;;7.20;1.60;;;19.80;57.20;;;;;;5026084;28;20506;-78
2022/07/28 00:51:08;;;;;;;4.70;1.20;;;19.70;57.20;;;;;;5026062;28;20984;-78
2022/07/28 00:53:36;;;;;;;8.67;1.40;;;19.70;57.30;;;;;;5025555;28;20472;-78
2022/07/28 00:56:06;;;;;;;7.17;1.50;;;19.60;57.40;;;;;;5025622;28;20496;-79
2022/07/28 00:58:34;;;;;;;5.10;1.20;;;19.60;57.40;;;;;;5026617;28;20480;-78
2022/07/28 01:01:03;;;;;;;4.90;1.27;;;19.60;57.40;;;;;;5025537;28;20520;-78
2022/07/28 01:03:32;;;;;;;4.17;1.40;;;19.50;57.40;;;;;;5026368;28;20484;-77
2022/07/28 01:06:10;;;;;;;5.00;1.10;;;19.50;57.50;;;;;;5023907;28;20449;-78
2022/07/28 01:08:52;;;;;;;6.07;1.43;;;19.50;57.50;;;;;;5022375;28;20488;-78
2022/07/28 01:11:25;;;;;;;4.60;1.10;;;19.40;57.60;;;;;;5011479;28;21128;-78
2022/07/28 01:14:07;;;;;;;4.40;0.97;;;19.40;57.60;;;;;;5025656;28;20804;-78
2022/07/28 01:16:51;;;;;;;3.70;1.10;;;19.40;57.70;;;;;;5021257;28;20468;-78
2022/07/28 01:19:32;;;;;;;5.80;1.13;;;19.40;57.70;;;;;;5030527;28;20517;-78
2022/07/28 01:22:03;;;;;;;5.03;1.03;;;19.40;57.70;;;;;;5031236;28;20456;-78
2022/07/28 01:24:39;;;;;;;4.53;1.23;;;19.40;57.60;;;;;;5029101;28;20466;-78
2022/07/28 01:27:10;;;;;;;5.67;1.37;;;19.40;57.70;;;;;;5026283;28;20464;-78
2022/07/28 01:30:01;;;;;;;5.10;1.10;;;19.40;57.70;;;;;;5032003;28;20473;-78
2022/07/28 01:32:35;;;;;;;4.43;1.20;;;19.40;57.70;;;;;;5023350;28;21116;-78
2022/07/28 01:35:10;;;;;;;7.13;1.83;;;19.40;57.70;;;;;;5032371;28;20517;-78
2022/07/28 01:37:43;;;;;;;4.90;1.20;;;19.40;57.60;;;;;;5020428;28;20484;-78
2022/07/28 01:40:14;;;;;;;4.07;1.17;;;19.40;57.60;;;;;;5013292;28;20553;-78
2022/07/28 01:42:46;;;;;;;3.47;0.97;;;19.40;57.60;;;;;;5032876;28;20461;-78
2022/07/28 01:45:16;;;;;;;5.80;1.60;;;19.30;57.60;;;;;;5032292;28;20473;-77
2022/07/28 01:47:46;;;;;;;4.30;1.10;;;19.30;57.70;;;;;;5032701;28;20495;-78
2022/07/28 01:50:16;;;;;;;5.63;1.27;;;19.30;57.70;;;;;;5034489;28;20460;-78
2022/07/28 01:52:47;;;;;;;5.20;1.37;;;19.20;57.60;;;;;;5031451;28;20935;-78
2022/07/28 01:55:19;;;;;;;7.60;1.13;;;19.10;57.70;;;;;;5032664;28;20454;-78
2022/07/28 01:57:48;;;;;;;4.50;1.20;;;19.00;57.90;;;;;;5033316;28;20489;-78
2022/07/28 02:00:18;;;;;;;3.57;1.00;;;19.10;57.90;;;;;;5018260;28;20452;-78
2022/07/28 02:02:49;;;;;;;4.03;1.23;;;19.00;57.90;;;;;;5028570;28;20460;-77
2022/07/28 02:05:20;;;;;;;5.83;1.03;;;19.10;57.90;;;;;;5032341;28;21052;-78
2022/07/28 02:07:51;;;;;;;5.07;1.40;;;19.10;58.10;;;;;;5031839;28;20793;-78
2022/07/28 02:10:21;;;;;;;4.90;1.40;;;19.10;57.90;;;;;;5031353;28;20455;-78
2022/07/28 02:12:50;;;;;;;5.67;1.30;;;19.20;57.90;;;;;;5031508;28;20451;-78
2022/07/28 02:15:20;;;;;;;9.20;1.43;;;19.20;57.70;;;;;;5010890;28;20482;-78
2022/07/28 02:17:52;;;;;;;4.00;1.03;;;19.10;57.70;;;;;;5012721;28;20501;-77
2022/07/28 02:20:22;;;;;;;5.40;1.00;;;19.10;57.70;;;;;;5030820;28;20509;-78
2022/07/28 02:22:52;;;;;;;5.37;1.27;;;19.10;57.70;;;;;;5030670;28;20996;-78
2022/07/28 02:25:21;;;;;;;5.23;1.10;;;19.10;57.70;;;;;;5031785;28;20758;-78
2022/07/28 02:27:53;;;;;;;6.10;1.30;;;19.20;57.70;;;;;;5032428;28;20467;-78
2022/07/28 02:30:26;;;;;;;4.90;1.47;;;19.20;57.70;;;;;;5026344;28;20895;-78
2022/07/28 02:32:57;;;;;;;4.70;1.40;;;19.10;57.70;;;;;;5028533;28;20454;-78
2022/07/28 02:35:31;;;;;;;4.30;1.57;;;19.10;57.70;;;;;;5026481;28;21096;-78
2022/07/28 02:38:06;;;;;;;5.50;1.40;;;19.10;57.70;;;;;;5028386;28;20503;-78
2022/07/28 02:40:36;;;;;;;3.70;1.20;;;19.00;57.70;;;;;;5024935;28;20452;-78
2022/07/28 02:43:10;;;;;;;4.60;1.20;;;19.00;57.80;;;;;;5028686;28;20480;-78
2022/07/28 02:45:41;;;;;;;5.63;1.63;;;19.00;57.90;;;;;;5028484;28;21683;-78
2022/07/28 02:48:13;;;;;;;5.17;1.30;;;19.00;57.90;;;;;;5025171;28;20473;-78
2022/07/28 02:50:42;;;;;;;5.20;1.33;;;18.90;58.00;;;;;;5028985;28;20472;-78
2022/07/28 02:53:15;;;;;;;5.50;1.40;;;18.90;58.00;;;;;;5027726;28;20546;-77
2022/07/28 02:55:46;;;;;;;4.17;1.50;;;18.80;58.10;;;;;;5025731;28;20524;-78
2022/07/28 02:58:15;;;;;;;5.07;1.30;;;18.80;58.20;;;;;;5033404;28;20575;-78
2022/07/28 03:00:44;;;;;;;4.50;1.33;;;18.70;58.30;;;;;;5026476;28;21481;-78
2022/07/28 03:03:14;;;;;;;3.93;1.23;;;18.70;58.40;;;;;;5028459;28;20460;-78
2022/07/28 03:05:43;;;;;;;4.13;1.50;;;18.70;58.40;;;;;;5028900;28;20452;-77
2022/07/28 03:08:11;;;;;;;8.33;1.67;;;18.70;58.50;;;;;;5028494;28;20480;-78
2022/07/28 03:10:40;;;;;;;4.57;1.40;;;18.60;58.60;;;;;;5024972;28;20461;-78
2022/07/28 03:13:08;;;;;;;4.17;1.23;;;18.60;58.60;;;;;;5027751;28;20468;-78
2022/07/28 03:15:38;;;;;;;6.63;1.37;;;18.60;58.70;;;;;;5025074;28;21017;-78
2022/07/28 03:18:07;;;;;;;4.20;1.37;;;18.50;58.80;;;;;;5028511;28;20489;-78
2022/07/28 03:20:36;;;;;;;5.80;1.30;;;18.50;58.90;;;;;;5028344;28;20474;-77
2022/07/28 03:23:05;;;;;;;4.27;1.23;;;18.50;58.90;;;;;;5025947;28;20463;-78
2022/07/28 03:25:40;;;;;;;5.50;1.70;;;18.50;59.00;;;;;;5027316;28;20855;-78
2022/07/28 03:28:12;;;;;;;5.60;2.00;;;18.60;59.10;;;;;;5023738;28;20473;-78
2022/07/28 03:30:44;;;;;;;6.37;1.33;;;18.60;59.10;;;;;;5027130;28;20477;-78
2022/07/28 03:33:13;;;;;;;4.87;1.87;;;18.50;59.10;;;;;;5027562;28;20450;-78
2022/07/28 03:35:47;;;;;;;5.23;1.60;;;18.50;59.00;;;;;;5027936;28;20956;-78
2022/07/28 03:38:21;;;;;;;4.37;1.57;;;18.50;59.20;;;;;;5027168;28;20995;-78
2022/07/28 03:40:51;;;;;;;6.23;1.37;;;18.40;59.30;;;;;;5026032;28;20823;-77
2022/07/28 03:43:22;;;;;;;6.93;1.40;;;18.50;59.30;;;;;;5026338;28;21033;-78
2022/07/28 03:45:50;;;;;;;6.00;1.33;;;18.50;59.40;;;;;;5026296;28;20484;-78
2022/07/28 03:48:22;;;;;;;5.43;1.27;;;18.40;59.40;;;;;;5026916;28;20469;-78
2022/07/28 03:50:51;;;;;;;4.40;1.43;;;18.40;59.50;;;;;;5027841;28;20466;-78
2022/07/28 03:53:22;;;;;;;5.70;1.30;;;18.40;59.60;;;;;;5027369;28;20464;-78
2022/07/28 03:55:51;;;;;;;4.33;1.50;;;18.40;59.60;;;;;;5026997;28;20469;-78
2022/07/28 03:58:19;;;;;;;7.13;1.87;;;18.40;59.60;;;;;;5027142;28;20500;-77
2022/07/28 04:00:48;;;;;;;6.10;1.20;;;18.40;59.60;;;;;;5026948;28;20477;-78
2022/07/28 04:03:17;;;;;;;7.53;1.30;;;18.40;59.70;;;;;;5027078;28;20556;-78
2022/07/28 04:06:03;;;;;;;3.40;0.93;;;18.40;59.70;;;;;;5027718;28;20456;-78
2022/07/28 04:08:31;;;;;;;3.57;1.10;;;18.50;59.80;;;;;;5027363;28;20480;-78
2022/07/28 04:10:59;;;;;;;5.53;1.30;;;18.50;59.70;;;;;;5026856;28;20456;-78
2022/07/28 04:13:27;;;;;;;5.93;1.60;;;18.50;59.80;;;;;;5026028;28;20462;-78
2022/07/28 04:15:55;;;;;;;4.70;1.20;;;18.50;59.80;;;;;;5026600;28;20474;-78
2022/07/28 04:18:23;;;;;;;4.70;1.33;;;18.50;59.80;;;;;;5027407;28;20488;-78
2022/07/28 04:20:51;;;;;;;4.40;1.27;;;18.50;59.80;;;;;;5027258;28;20452;-78
2022/07/28 04:23:21;;;;;;;5.20;1.17;;;18.50;59.90;;;;;;5008518;28;20476;-78
2022/07/28 04:25:49;;;;;;;6.83;1.40;;;18.50;59.90;;;;;;5026763;28;20471;-78
2022/07/28 04:28:17;;;;;;;4.67;1.40;;;18.50;59.90;;;;;;5025818;28;20489;-78
2022/07/28 04:30:46;;;;;;;3.90;1.27;;;18.50;60.00;;;;;;5017520;28;20960;-78
2022/07/28 04:33:14;;;;;;;5.80;1.13;;;18.50;60.00;;;;;;5026860;28;21044;-78
2022/07/28 04:35:42;;;;;;;6.33;1.30;;;18.50;60.00;;;;;;5028096;28;20450;-78
2022/07/28 04:38:12;;;;;;;4.93;1.20;;;18.50;59.90;;;;;;5024571;28;21059;-78
2022/07/28 04:40:42;;;;;;;5.73;1.40;;;18.60;59.90;;;;;;5024189;28;20464;-78
2022/07/28 04:43:10;;;;;;;6.13;1.30;;;18.60;59.90;;;;;;5026091;28;20453;-78
2022/07/28 04:45:38;;;;;;;6.30;1.37;;;18.60;59.90;;;;;;5020889;28;20580;-78
2022/07/28 04:48:13;;;;;;;4.63;1.43;;;18.60;59.90;;;;;;5022372;28;20808;-78
2022/07/28 04:50:45;;;;;;;5.50;1.40;;;18.70;60.00;;;;;;5016038;28;20460;-78
2022/07/28 04:53:13;;;;;;;4.33;1.40;;;18.80;59.90;;;;;;5002203;28;20473;-77
2022/07/28 04:55:42;;;;;;;9.40;1.50;;;18.80;60.00;;;;;;5016110;28;20467;-78
2022/07/28 04:58:11;;;;;;;5.50;1.40;;;18.90;60.00;;;;;;5026539;28;20519;-79
2022/07/28 05:00:39;;;;;;;8.90;1.67;;;18.90;60.00;;;;;;5010601;28;20469;-78
2022/07/28 05:03:07;;;;;;;5.33;1.33;;;18.90;60.10;;;;;;5027119;28;20455;-78
2022/07/28 05:05:35;;;;;;;5.87;1.80;;;18.90;60.10;;;;;;5025862;28;20462;-78
2022/07/28 05:08:03;;;;;;;5.13;1.60;;;19.00;60.20;;;;;;5017017;28;20842;-79
2022/07/28 05:10:31;;;;;;;6.60;1.30;;;19.10;60.30;;;;;;5032086;28;20456;-78
2022/07/28 05:13:05;;;;;;;5.83;1.73;;;19.10;60.20;;;;;;5031529;28;20824;-76
2022/07/28 05:15:33;;;;;;;6.50;1.60;;;19.20;60.30;;;;;;5028573;28;20474;-78
2022/07/28 05:18:01;;;;;;;7.93;1.33;;;19.30;60.10;;;;;;5029714;28;20947;-78
2022/07/28 05:20:29;;;;;;;6.80;1.40;;;19.50;60.20;;;;;;5033724;28;20468;-78
2022/07/28 05:22:57;;;;;;;4.73;1.20;;;19.60;60.30;;;;;;5023455;28;20454;-78
2022/07/28 05:25:25;;;;;;;5.00;1.27;;;19.70;60.30;;;;;;5032407;28;20470;-78
2022/07/28 05:27:54;;;;;;;5.43;1.27;;;20.00;60.40;;;;;;5029793;28;20468;-79
2022/07/28 05:30:24;;;;;;;3.73;1.10;;;20.20;60.30;;;;;;5024058;28;20987;-78
2022/07/28 05:32:58;;;;;;;6.30;1.47;;;20.90;59.80;;;;;;5026767;28;20648;-77
2022/07/28 05:35:26;;;;;;;4.73;1.37;;;21.80;58.30;;;;;;5026543;28;20459;-79
2022/07/28 05:37:54;;;;;;;4.43;1.20;;;22.70;56.90;;;;;;5026046;28;20479;-79
2022/07/28 05:40:22;;;;;;;4.17;1.23;;;23.70;55.70;;;;;;5026917;28;20444;-78
2022/07/28 05:42:50;;;;;;;6.80;1.57;;;24.20;54.40;;;;;;5024812;28;20459;-78
2022/07/28 05:45:18;;;;;;;7.30;1.40;;;24.40;53.60;;;;;;5009497;28;20510;-78
2022/07/28 05:47:48;;;;;;;5.87;1.40;;;24.70;53.50;;;;;;5023821;28;20496;-78
2022/07/28 05:50:18;;;;;;;14.20;1.50;;;25.20;53.10;;;;;;5024025;28;20523;-78
2022/07/28 05:52:46;;;;;;;4.23;1.30;;;25.50;52.00;;;;;;5027896;28;20463;-78
2022/07/28 05:55:16;;;;;;;4.80;1.30;;;25.40;51.50;;;;;;5020453;28;20448;-78
2022/07/28 05:57:44;;;;;;;8.33;1.70;;;25.20;51.90;;;;;;5024922;28;20472;-78
2022/07/28 06:00:15;;;;;;;5.70;1.93;;;25.60;52.10;;;;;;5025690;28;21001;-77
2022/07/28 06:02:45;;;;;;;5.30;1.20;;;26.40;51.50;;;;;;5024498;28;20459;-78
2022/07/28 06:05:16;;;;;;;5.00;1.30;;;27.10;50.90;;;;;;5025466;28;20493;-78
2022/07/28 06:07:45;;;;;;;7.77;1.83;;;27.80;49.60;;;;;;5027379;28;20886;-78
2022/07/28 06:10:15;;;;;;;4.40;1.37;;;28.20;48.50;;;;;;5026545;28;20457;-78
2022/07/28 06:12:44;;;;;;;6.73;1.70;;;28.40;47.80;;;;;;5028060;28;20470;-78
2022/07/28 06:15:14;;;;;;;4.60;1.73;;;28.40;47.00;;;;;;5024848;28;21030;-78
2022/07/28 06:17:42;;;;;;;4.87;2.00;;;28.10;46.70;;;;;;5017058;28;20577;-78
2022/07/28 06:20:11;;;;;;;7.37;1.80;;;27.50;46.50;;;;;;5028798;28;20485;-78
2022/07/28 06:22:45;;;;;;;5.07;1.70;;;27.00;47.10;;;;;;5028929;28;20468;-78
2022/07/28 06:25:15;;;;;;;4.93;1.77;;;26.40;46.50;;;;;;5029475;28;20457;-78
2022/07/28 06:27:44;;;;;;;5.60;1.90;;;25.30;47.50;;;;;;5024966;28;20481;-78
2022/07/28 06:30:13;;;;;;;4.30;1.70;;;24.20;48.30;;;;;;5028225;28;20936;-78
2022/07/28 06:32:41;;;;;;;6.43;1.90;;;23.30;49.60;;;;;;5030844;28;20568;-77
2022/07/28 06:35:09;;;;;;;5.33;1.77;;;22.50;50.80;;;;;;5027632;28;20463;-78
2022/07/28 06:37:37;;;;;;;6.40;2.23;;;21.90;51.70;;;;;;5029638;28;20497;-78
2022/07/28 06:40:10;;;;;;;10.30;2.30;;;21.50;52.60;;;;;;5016005;28;20898;-78
2022/07/28 06:42:38;;;;;;;6.83;1.87;;;21.30;53.20;;;;;;5026836;28;20457;-77
2022/07/28 06:45:07;;;;;;;5.00;1.53;;;21.10;53.90;;;;;;5028443;28;20479;-78
2022/07/28 06:47:36;;;;;;;9.30;1.80;;;21.00;54.20;;;;;;5032818;28;20486;-78
2022/07/28 06:50:12;;;;;;;5.27;2.03;;;20.90;54.60;;;;;;5026106;28;20485;-78
2022/07/28 06:52:54;;;;;;;6.37;2.00;;;20.80;55.10;;;;;;5026175;28;20969;-78
2022/07/28 06:55:23;;;;;;;5.10;1.90;;;20.70;55.60;;;;;;5027992;28;20470;-78
2022/07/28 06:57:53;;;;;;;10.10;2.07;;;20.60;56.20;;;;;;5028120;28;20514;-77
2022/07/28 07:00:21;;;;;;;13.67;2.27;;;20.50;56.00;;;;;;5022804;28;20591;-78
2022/07/28 07:02:49;;;;;;;9.60;2.50;;;20.50;56.50;;;;;;5027679;28;20462;-78
2022/07/28 07:05:17;;;;;;;9.50;1.73;;;20.60;56.60;;;;;;5026630;28;20460;-78
2022/07/28 07:07:45;;;;;;;6.33;2.20;;;20.60;56.70;;;;;;5027226;28;20472;-78
2022/07/28 07:10:13;;;;;;;4.53;1.80;;;20.70;57.00;;;;;;5024063;28;20473;-78
2022/07/28 07:12:42;;;;;;;14.43;2.57;;;20.70;56.90;;;;;;5023801;28;20542;-78
2022/07/28 07:15:11;;;;;;;7.03;2.03;;;20.80;57.10;;;;;;5025086;28;20463;-78
2022/07/28 07:17:40;;;;;;;8.67;2.07;;;20.80;57.30;;;;;;5027848;28;20476;-78
2022/07/28 07:20:12;;;;;;;10.83;2.00;;;20.90;57.40;;;;;;5024676;28;20546;-78
2022/07/28 07:22:44;;;;;;;3.90;1.60;;;20.90;57.40;;;;;;5028551;28;20848;-78
2022/07/28 07:25:13;;;;;;;7.13;1.77;;;21.00;57.40;;;;;;5026530;28;20463;-77
2022/07/28 07:27:42;;;;;;;4.80;1.87;;;21.00;57.60;;;;;;5028023;28;20477;-78
2022/07/28 07:30:12;;;;;;;7.70;2.37;;;21.10;57.60;;;;;;5024255;28;20449;-78
2022/07/28 07:32:40;;;;;;;14.57;2.37;;;21.10;57.60;;;;;;5028491;28;20461;-78
2022/07/28 07:35:09;;;;;;;5.07;1.90;;;21.10;57.60;;;;;;5026664;28;20455;-78
2022/07/28 07:37:37;;;;;;;8.20;2.47;;;21.20;57.70;;;;;;5027199;28;20462;-78
2022/07/28 07:40:06;;;;;;;6.63;1.80;;;21.20;57.70;;;;;;5026788;28;20499;-78
2022/07/28 07:42:34;;;;;;;9.27;2.00;;;21.30;57.70;;;;;;5027316;28;20452;-78
2022/07/28 07:45:04;;;;;;;5.23;1.60;;;21.30;57.60;;;;;;5026942;28;20467;-77
2022/07/28 07:47:32;;;;;;;5.70;2.13;;;21.30;57.70;;;;;;5033571;28;20573;-78
2022/07/28 07:50:00;;;;;;;5.73;2.00;;;21.30;57.70;;;;;;5027908;28;20468;-78
2022/07/28 07:52:31;;;;;;;4.73;1.83;;;21.30;57.80;;;;;;5021462;28;20456;-78
2022/07/28 07:54:59;;;;;;;8.50;2.10;;;21.30;57.90;;;;;;5006052;28;20477;-78
2022/07/28 07:57:28;;;;;;;5.10;1.97;;;21.30;57.90;;;;;;5021765;28;20457;-78
2022/07/28 07:59:56;;;;;;;5.70;1.80;;;21.40;58.00;;;;;;5025839;28;20474;-78
2022/07/28 08:02:25;;;;;;;6.50;2.10;;;21.40;58.00;;;;;;5014371;28;20472;-78
2022/07/28 08:04:55;;;;;;;8.80;2.10;;;21.50;58.00;;;;;;5024266;28;20475;-78
2022/07/28 08:07:23;;;;;;;7.90;2.10;;;21.50;57.90;;;;;;5024194;28;20482;-78
2022/07/28 08:09:51;;;;;;;8.13;1.97;;;21.50;58.00;;;;;;5024422;28;20458;-78
2022/07/28 08:12:19;;;;;;;6.30;2.00;;;21.50;58.10;;;;;;5029414;28;20467;-78
2022/07/28 08:14:52;;;;;;;10.13;2.13;;;21.60;57.90;;;;;;5023743;28;20477;-78
2022/07/28 08:17:20;;;;;;;6.83;1.90;;;21.70;57.90;;;;;;5023292;28;20482;-78
2022/07/28 08:19:55;;;;;;;9.63;2.43;;;21.70;57.90;;;;;;5023717;28;20482;-78
2022/07/28 08:22:23;;;;;;;9.20;2.47;;;21.80;57.90;;;;;;5021041;28;20831;-78
2022/07/28 08:24:51;;;;;;;5.20;2.20;;;21.90;57.90;;;;;;5012617;28;20461;-78
2022/07/28 08:27:19;;;;;;;7.43;2.23;;;21.90;57.90;;;;;;5026292;28;21009;-78
2022/07/28 08:29:47;;;;;;;4.80;1.70;;;22.00;57.90;;;;;;5025018;28;20462;-78
2022/07/28 08:32:22;;;;;;;8.77;2.47;;;22.10;57.80;;;;;;5023811;28;20477;-78
2022/07/28 08:34:50;;;;;;;7.57;2.67;;;22.10;57.70;;;;;;5023691;28;20813;-78
2022/07/28 08:37:38;;;;;;;8.80;2.30;;;22.20;57.60;;;;;;5026566;28;20466;-78
2022/07/28 08:40:13;;;;;;;6.80;2.17;;;22.20;57.50;;;;;;5025181;28;20489;-78
2022/07/28 08:42:50;;;;;;;6.53;1.87;;;22.20;57.50;;;;;;5023560;28;20463;-78
2022/07/28 08:45:20;;;;;;;7.40;2.17;;;22.20;57.60;;;;;;5023550;28;20465;-78
2022/07/28 08:47:50;;;;;;;6.20;2.53;;;22.30;57.60;;;;;;5022048;28;20607;-78
2022/07/28 08:50:37;;;;;;;6.70;2.40;;;22.30;57.60;;;;;;5023753;28;20476;-78
2022/07/28 08:53:07;;;;;;;8.60;2.60;;;22.50;57.50;;;;;;5024406;28;20456;-78
2022/07/28 08:55:36;;;;;;;6.03;2.10;;;22.50;57.30;;;;;;5025980;28;20483;-78
2022/07/28 08:58:04;;;;;;;6.37;1.70;;;22.50;57.10;;;;;;5011994;28;20483;-78
2022/07/28 09:00:33;;;;;;;6.07;2.07;;;22.60;57.20;;;;;;5009502;28;20492;-78
2022/07/28 09:03:03;;;;;;;10.43;2.17;;;22.60;57.20;;;;;;5025173;28;20461;-78
2022/07/28 09:05:31;;;;;;;6.13;1.77;;;22.70;57.30;;;;;;5022152;28;20544;-78
2022/07/28 09:08:00;;;;;;;6.47;2.47;;;22.80;57.20;;;;;;5024371;28;20482;-78
2022/07/28 09:10:29;;;;;;;9.40;2.37;;;22.80;57.10;;;;;;5025862;28;20449;-78
2022/07/28 09:12:57;;;;;;;4.63;1.80;;;22.90;57.00;;;;;;5022588;28;20455;-78
2022/07/28 09:15:26;;;;;;;6.73;1.93;;;23.00;56.90;;;;;;5024103;28;20470;-78
2022/07/28 09:17:54;;;;;;;7.53;1.77;;;23.10;56.80;;;;;;5023405;28;20488;-79
2022/07/28 09:20:23;;;;;;;8.80;1.97;;;23.20;56.60;;;;;;5025849;28;20513;-79
2022/07/28 09:22:56;;;;;;;13.23;2.67;;;23.20;56.60;;;;;;5025229;28;20464;-79
2022/07/28 09:25:25;;;;;;;9.00;3.03;;;23.30;56.50;;;;;;5024795;28;20458;-79
2022/07/28 09:27:55;;;;;;;8.87;2.40;;;23.40;56.30;;;;;;5025834;28;20483;-78
2022/07/28 09:30:30;;;;;;;5.13;2.47;;;23.40;56.30;;;;;;5025106;28;20456;-78
2022/07/28 09:33:12;;;;;;;8.43;2.00;;;23.50;56.10;;;;;;5022979;28;21033;-78
2022/07/28 09:36:00;;;;;;;9.00;2.23;;;23.50;55.90;;;;;;5024994;28;21067;-78
2022/07/28 09:38:40;;;;;;;5.53;1.83;;;23.60;55.80;;;;;;5022732;28;21025;-79
2022/07/28 09:41:08;;;;;;;8.60;2.70;;;23.70;55.60;;;;;;5029257;28;20474;-78
2022/07/28 09:43:41;;;;;;;5.60;1.93;;;23.70;55.70;;;;;;5029532;28;20552;-78
2022/07/28 09:46:11;;;;;;;8.83;2.40;;;23.80;55.50;;;;;;5028158;28;20857;-78
2022/07/28 09:48:51;;;;;;;5.13;1.93;;;23.90;55.40;;;;;;5029315;28;20527;-78
2022/07/28 09:51:21;;;;;;;5.27;2.03;;;24.00;55.00;;;;;;5028831;28;20459;-78
2022/07/28 09:53:50;;;;;;;6.67;2.37;;;24.00;55.00;;;;;;5027409;28;20463;-78
2022/07/28 09:56:18;;;;;;;8.57;2.00;;;24.00;55.00;;;;;;5028546;28;20450;-78
2022/07/28 09:58:58;;;;;;;8.00;2.50;;;24.10;54.90;;;;;;5029980;28;20703;-78
2022/07/28 10:01:26;;;;;;;6.97;2.37;;;24.20;54.80;;;;;;5028694;28;20485;-78
2022/07/28 10:04:04;;;;;;;6.70;2.10;;;24.20;54.50;;;;;;5026671;28;20517;-79
2022/07/28 10:06:36;;;;;;;6.77;1.80;;;24.20;54.50;;;;;;5029123;28;20473;-78
2022/07/28 10:09:06;;;;;;;5.30;2.20;;;24.30;54.50;;;;;;5033815;28;20478;-78
2022/07/28 10:11:34;;;;;;;6.33;2.90;;;24.40;54.40;;;;;;5029084;28;21149;-79
2022/07/28 10:14:12;;;;;;;8.70;2.40;;;24.40;54.30;;;;;;5026321;28;20458;-78
2022/07/28 10:16:43;;;;;;;7.17;2.17;;;24.50;54.10;;;;;;5027869;28;20891;-78
2022/07/28 10:19:11;;;;;;;6.50;1.97;;;24.50;53.70;;;;;;5026834;28;20517;-78
2022/07/28 10:21:42;;;;;;;9.50;2.40;;;24.60;53.70;;;;;;5024297;28;20472;-79
2022/07/28 10:24:14;;;;;;;8.10;2.30;;;24.70;53.50;;;;;;5025984;28;20840;-78
2022/07/28 10:26:44;;;;;;;5.23;2.00;;;24.70;53.50;;;;;;5027044;28;20459;-78
2022/07/28 10:29:15;;;;;;;6.13;2.10;;;24.80;53.10;;;;;;5025811;28;20482;-78
2022/07/28 10:31:48;;;;;;;5.73;2.20;;;24.80;53.20;;;;;;5010641;28;20482;-78
2022/07/28 10:34:21;;;;;;;5.43;2.30;;;24.90;53.10;;;;;;5017624;28;20470;-78
2022/07/28 10:36:54;;;;;;;4.87;2.03;;;25.00;53.10;;;;;;5027018;28;20461;-78
2022/07/28 10:39:23;;;;;;;7.13;2.23;;;25.10;52.90;;;;;;5029376;28;20479;-78
2022/07/28 10:41:52;;;;;;;7.13;1.87;;;25.10;52.60;;;;;;5028930;28;20479;-78
2022/07/28 10:44:22;;;;;;;6.17;2.70;;;25.20;52.50;;;;;;5025166;28;20693;-78
2022/07/28 10:46:51;;;;;;;10.03;2.37;;;25.20;52.40;;;;;;5033447;28;20472;-78
2022/07/28 10:49:20;;;;;;;4.80;2.07;;;25.20;52.20;;;;;;5017154;28;20937;-79
2022/07/28 10:51:55;;;;;;;4.93;1.90;;;25.20;52.20;;;;;;5026032;28;20452;-78
2022/07/28 10:54:48;;;;;;;6.80;2.47;;;25.30;52.10;;;;;;5027190;28;20531;-78
2022/07/28 10:57:17;;;;;;;5.83;2.10;;;25.40;51.70;;;;;;5026748;28;20461;-78
2022/07/28 11:00:16;;;;;;;7.50;1.70;;;25.40;51.60;;;;;;5028953;28;20457;-78
2022/07/28 11:02:57;;;;;;;4.80;1.70;;;25.40;51.40;;;;;;5029784;28;20519;-78
2022/07/28 11:05:31;;;;;;;5.10;1.87;;;25.40;51.30;;;;;;5031110;28;20463;-78
2022/07/28 11:08:00;;;;;;;4.60;1.80;;;25.50;51.20;;;;;;5029826;28;20488;-78
2022/07/28 11:10:29;;;;;;;5.20;2.10;;;25.60;51.00;;;;;;5033764;28;20449;-78
2022/07/28 11:12:59;;;;;;;5.70;1.90;;;25.70;51.00;;;;;;5033010;28;20453;-78
2022/07/28 11:15:37;;;;;;;8.13;2.27;;;25.80;50.90;;;;;;5034475;28;20863;-78
2022/07/28 11:18:06;;;;;;;4.90;2.37;;;25.80;50.50;;;;;;5035275;28;20480;-78
2022/07/28 11:21:04;;;;;;;8.90;2.60;;;25.90;50.60;;;;;;5033056;28;20470;-78
2022/07/28 11:23:45;;;;;;;4.70;2.00;;;25.90;50.10;;;;;;5030673;28;20453;-78
2022/07/28 11:26:33;;;;;;;5.90;1.80;;;25.90;50.40;;;;;;5027736;28;20507;-78
2022/07/28 11:29:21;;;;;;;7.13;2.10;;;25.80;50.30;;;;;;5027728;28;20500;-79
2022/07/28 11:32:06;;;;;;;6.67;2.07;;;25.90;50.10;;;;;;5027399;28;20537;-78
2022/07/28 11:35:17;;;;;;;6.63;2.00;;;25.90;50.10;;;;;;5025603;28;20706;-78
2022/07/28 11:38:10;;;;;;;7.30;2.30;;;25.90;50.20;;;;;;5026591;28;20515;-78
2022/07/28 11:40:41;;;;;;;7.47;2.20;;;25.90;50.20;;;;;;5026440;28;20464;-78
2022/07/28 11:43:29;;;;;;;5.60;2.30;;;25.90;50.20;;;;;;5027474;28;20502;-78
2022/07/28 11:46:32;;;;;;;8.70;2.00;;;25.90;50.20;;;;;;5026631;28;20571;-78
2022/07/28 11:49:21;;;;;;;6.60;2.33;;;25.90;50.20;;;;;;5025655;28;21353;-78
2022/07/28 11:52:09;;;;;;;5.20;2.70;;;26.00;50.20;;;;;;5027021;28;20867;-78
2022/07/28 11:54:39;;;;;;;6.37;2.33;;;26.00;50.10;;;;;;5026517;28;21213;-78
2022/07/28 11:57:10;;;;;;;6.57;1.90;;;26.00;50.20;;;;;;5026716;28;20461;-78
2022/07/28 11:59:48;;;;;;;7.00;2.70;;;26.10;50.10;;;;;;5026907;28;20536;-78
2022/07/28 12:02:18;;;;;;;5.47;2.30;;;26.10;50.20;;;;;;5026170;28;20476;-78
2022/07/28 12:05:04;;;;;;;5.20;2.10;;;26.10;50.20;;;;;;5026679;28;20463;-78
2022/07/28 12:07:37;;;;;;;7.70;2.50;;;26.20;50.00;;;;;;5018709;28;21001;-78
2022/07/28 12:10:39;;;;;;;5.77;1.97;;;26.20;49.90;;;;;;5025024;28;20464;-78
2022/07/28 12:13:27;;;;;;;5.93;2.10;;;26.30;49.90;;;;;;5027237;28;20500;-78
2022/07/28 12:15:55;;;;;;;5.40;1.90;;;26.40;50.00;;;;;;5011153;28;20552;-78
2022/07/28 12:18:23;;;;;;;5.43;2.43;;;26.40;49.80;;;;;;5023076;28;20486;-78
2022/07/28 12:20:54;;;;;;;8.13;2.17;;;26.40;49.70;;;;;;5026749;28;20553;-78
2022/07/28 12:23:30;;;;;;;5.57;2.57;;;26.50;49.60;;;;;;5026739;28;20507;-78
2022/07/28 12:26:06;;;;;;;7.50;2.60;;;26.50;49.50;;;;;;5026106;28;20954;-78
2022/07/28 12:28:36;;;;;;;4.30;2.10;;;26.50;49.30;;;;;;5028354;28;20574;-78
2022/07/28 12:31:12;;;;;;;5.63;2.10;;;26.50;49.40;;;;;;5024994;28;20487;-78
2022/07/28 12:33:40;;;;;;;5.17;2.40;;;26.60;49.10;;;;;;5025060;28;20459;-79
2022/07/28 12:36:10;;;;;;;5.77;2.07;;;26.50;49.10;;;;;;5023437;28;20458;-78
2022/07/28 12:38:38;;;;;;;6.83;2.07;;;26.50;49.20;;;;;;5026092;28;20477;-79
2022/07/28 12:41:14;;;;;;;5.97;1.80;;;26.60;49.20;;;;;;5014723;28;20492;-78
2022/07/28 12:43:50;;;;;;;7.93;2.13;;;26.60;48.80;;;;;;5020802;28;20493;-78
2022/07/28 12:46:22;;;;;;;6.13;2.23;;;26.60;49.10;;;;;;5024129;28;20483;-78
2022/07/28 12:48:56;;;;;;;8.03;2.00;;;26.60;49.20;;;;;;5025514;28;20468;-78
2022/07/28 12:51:33;;;;;;;6.40;2.43;;;26.70;49.00;;;;;;5028591;28;20473;-78
2022/07/28 12:54:01;;;;;;;5.03;1.87;;;26.70;49.00;;;;;;5017898;28;20553;-78
2022/07/28 12:56:30;;;;;;;6.13;1.97;;;26.70;48.90;;;;;;5026432;28;20452;-78
2022/07/28 12:59:05;;;;;;;6.00;2.23;;;26.70;49.00;;;;;;5032856;28;20474;-78
2022/07/28 13:01:47;;;;;;;7.10;2.40;;;26.80;49.00;;;;;;5024629;28;20474;-78
2022/07/28 13:04:37;;;;;;;7.57;2.40;;;26.80;48.80;;;;;;5024013;28;20493;-78
2022/07/28 13:07:09;;;;;;;6.00;2.40;;;26.80;48.40;;;;;;5025983;28;20530;-78
2022/07/28 13:09:44;;;;;;;6.53;3.30;;;26.90;48.70;;;;;;5035428;28;21055;-78